Portada
METAR-TAF:

METAR-TAF

Aeropuertos :

Nouméa / La Tontouta, Nueva Caledonia

Aeropuerto Internacional La Tontouta

latitud: 22-01S, longitud: 166-13E, altitud: 16 m

Observación

El informe se hizo hace 25 minutos, a las 01:30 UTC
Viento 12 kt del sureste, variando entre este y sur
Temperatura 24°C
Humedad 47%
Presión 1019 hPa
Visibilidad 10 km o más
Cielo nuboso a una altura de 6400 ft

METAR: NWWW 280130Z AUTO 13012KT 100V170 9999 BKN064 24/12 Q1019 NOSIG

Hora: 12:55 (01:55 UTC)

Pronóstico

El informe se hizo hace 2 horas y 55 minutos, a las 23:00 UTC
Pronóstico válido del 28 a las 00 UTC al 28 a las 24 UTC
Viento 12 kt del sureste
Visibilidad 10 km o más
Nubes dispersas a una altura de 4000 ft
Evolucionando progresivamente
del 28 a las 06 UTC al 28 a las 08 UTC
Viento 2 kt con dirección variable

TAF: NWWW 272300Z 2800/2824 14012KT 9999 SCT040 BECMG 2806/2808 VRB02KT

Observaciones y pronósticos meteorológicos de más de 4000 aeropuertos (mensajes METAR y TAF).

Los puntos amarillos y rojos representan las estaciones disponibles.

Ponga el ratón en el punto deseado para ver el nombre de la estación.

Haga clic para ver las observaciones y los pronósticos meteorológicos.

Para cambiar el mapa : haga clic en los botones verdes con una cruz de color negro para hacer un zoom, en el botón verde con un guión para alejar o en las flechas verdes para mapas adyacentes.


METAR-TAF: